Time;durP1;ratioP1;P1;durP2;ratioP2;P2;SDS_P1;SDS_P2;PMS_P1;PMS_P2;Temp;Humidity;BMP_temperature;BMP_pressure;BME280_temperature;BME280_humidity;BME280_pressure;Samples;Min_cycle;Max_cycle;Signal;HPM_P1;HPM_P2
2022/05/25 00:00:25;;;;;;;12.25;9.02;;;8.70;99.90;;;;;;5035017;28;20041;-81
2022/05/25 00:02:52;;;;;;;11.93;8.85;;;8.70;99.90;;;;;;5029612;28;20045;-82
2022/05/25 00:05:20;;;;;;;12.38;9.02;;;8.60;99.90;;;;;;5015644;28;20045;-84
2022/05/25 00:07:45;;;;;;;12.45;9.48;;;8.60;99.90;;;;;;5011232;28;20453;-80
2022/05/25 00:10:12;;;;;;;13.70;9.80;;;8.60;99.90;;;;;;5032672;28;20053;-80
2022/05/25 00:12:39;;;;;;;14.18;9.10;;;8.60;99.90;;;;;;5030894;28;20652;-80
2022/05/25 00:15:10;;;;;;;11.48;9.70;;;8.60;99.90;;;;;;5016831;28;20053;-80
2022/05/25 00:17:35;;;;;;;11.68;9.55;;;8.60;99.90;;;;;;5016255;28;20136;-80
2022/05/25 00:20:02;;;;;;;15.32;9.95;;;8.50;99.90;;;;;;5019037;28;20184;-80
2022/05/25 00:22:50;;;;;;;14.38;10.63;;;8.50;99.90;;;;;;5031922;28;20052;-80
2022/05/25 00:25:25;;;;;;;13.55;11.02;;;8.50;99.90;;;;;;5015979;28;20467;-80
2022/05/25 00:27:51;;;;;;;13.87;10.90;;;8.60;99.90;;;;;;5049274;28;20077;-81
2022/05/25 00:30:18;;;;;;;15.52;10.70;;;8.50;99.90;;;;;;5016048;28;20045;-80
2022/05/25 00:32:44;;;;;;;13.77;10.57;;;8.50;99.90;;;;;;5012455;28;20041;-80
2022/05/25 00:35:13;;;;;;;17.92;11.18;;;8.60;99.90;;;;;;5016431;28;20084;-79
2022/05/25 00:37:39;;;;;;;16.38;11.45;;;8.50;99.90;;;;;;5032281;28;20053;-81
2022/05/25 00:40:07;;;;;;;14.82;11.93;;;8.50;99.90;;;;;;5064572;28;20462;-79
2022/05/25 00:42:35;;;;;;;18.27;12.18;;;8.50;99.90;;;;;;5015228;28;20091;-80
2022/05/25 00:45:02;;;;;;;15.63;11.93;;;8.50;99.90;;;;;;5032978;28;20048;-80
2022/05/25 00:47:31;;;;;;;16.05;12.70;;;8.50;99.90;;;;;;5046895;28;20128;-80
2022/05/25 00:49:57;;;;;;;15.35;11.68;;;8.50;99.90;;;;;;5047558;28;20125;-80
2022/05/25 00:52:23;;;;;;;14.60;12.35;;;8.50;99.90;;;;;;5046626;28;20045;-83
2022/05/25 00:54:54;;;;;;;18.63;12.48;;;8.60;99.90;;;;;;5030385;28;20041;-83
2022/05/25 00:57:42;;;;;;;18.40;13.60;;;8.50;99.90;;;;;;5032710;28;20053;-83
2022/05/25 01:00:10;;;;;;;18.25;12.75;;;8.40;99.90;;;;;;5024567;28;20081;-83
2022/05/25 01:02:43;;;;;;;16.88;12.77;;;8.50;99.90;;;;;;5046439;28;20118;-84
2022/05/25 01:05:11;;;;;;;20.10;13.13;;;8.40;99.90;;;;;;5031137;28;20106;-83
2022/05/25 01:07:49;;;;;;;18.02;13.18;;;8.50;99.90;;;;;;5028226;28;20586;-83
2022/05/25 01:10:21;;;;;;;20.40;14.00;;;8.40;99.90;;;;;;5034690;28;20510;-82
2022/05/25 01:13:11;;;;;;;18.00;12.75;;;8.40;99.90;;;;;;5041577;28;20887;-82
2022/05/25 01:15:37;;;;;;;17.88;12.90;;;8.40;99.90;;;;;;5020988;28;20045;-82
2022/05/25 01:18:31;;;;;;;17.88;12.95;;;8.50;99.90;;;;;;5032225;28;20095;-82
2022/05/25 01:21:17;;;;;;;19.58;13.75;;;8.50;99.90;;;;;;5032718;28;20487;-83
2022/05/25 01:23:51;;;;;;;19.50;14.07;;;8.40;99.90;;;;;;5004986;28;20044;-83
2022/05/25 01:26:40;;;;;;;19.25;14.43;;;8.40;99.90;;;;;;5032203;28;20556;-82
2022/05/25 01:29:22;;;;;;;18.08;13.13;;;8.40;99.90;;;;;;5032442;28;20054;-82
2022/05/25 01:31:59;;;;;;;22.13;13.98;;;8.40;99.90;;;;;;5034633;28;20642;-82
2022/05/25 01:34:37;;;;;;;25.27;14.05;;;8.40;99.90;;;;;;5031702;28;20048;-82
2022/05/25 01:37:17;;;;;;;23.55;16.42;;;8.40;99.90;;;;;;5031056;28;20525;-82
2022/05/25 01:39:55;;;;;;;19.75;14.15;;;8.40;99.90;;;;;;5029518;28;20037;-82
2022/05/25 01:42:31;;;;;;;16.88;13.77;;;8.40;99.90;;;;;;5029819;28;20048;-82
2022/05/25 01:45:05;;;;;;;22.50;14.38;;;8.40;99.90;;;;;;5032127;28;20045;-83
2022/05/25 01:47:33;;;;;;;23.42;15.82;;;8.40;99.90;;;;;;5060661;28;20124;-84
2022/05/25 01:50:09;;;;;;;22.83;15.95;;;8.40;99.90;;;;;;5017891;28;20124;-82
2022/05/25 01:52:45;;;;;;;23.43;15.77;;;8.40;99.90;;;;;;5038011;28;20136;-84
2022/05/25 01:55:35;;;;;;;22.13;15.90;;;8.40;99.90;;;;;;5013062;28;20379;-83
2022/05/25 01:58:07;;;;;;;21.98;15.40;;;8.40;99.90;;;;;;5013911;28;20057;-83
2022/05/25 02:00:35;;;;;;;20.15;15.75;;;8.40;99.90;;;;;;5030967;28;20368;-83
2022/05/25 02:06:09;;;;;;;17.65;14.73;;;8.40;99.90;;;;;;5022896;28;20065;-83
2022/05/25 02:08:52;;;;;;;22.60;15.77;;;8.40;99.90;;;;;;5028831;28;20045;-83
2022/05/25 02:11:35;;;;;;;32.88;17.30;;;8.40;99.90;;;;;;5045842;28;20049;-82
2022/05/25 02:14:12;;;;;;;22.70;15.73;;;8.50;99.90;;;;;;5031405;28;20110;-83
2022/05/25 02:16:41;;;;;;;26.58;16.60;;;8.40;99.90;;;;;;5052078;28;20045;-83
2022/05/25 02:19:23;;;;;;;24.65;16.25;;;8.40;99.90;;;;;;5016653;28;20046;-83
2022/05/25 02:22:02;;;;;;;22.30;16.48;;;8.50;99.90;;;;;;5030911;28;20502;-82
2022/05/25 02:24:30;;;;;;;21.02;15.55;;;8.50;99.90;;;;;;5035492;28;20055;-82
2022/05/25 02:27:15;;;;;;;21.75;15.88;;;8.50;99.90;;;;;;5012376;28;20206;-83
2022/05/25 02:29:45;;;;;;;26.45;15.38;;;8.50;99.90;;;;;;5025325;28;20434;-83
2022/05/25 02:32:25;;;;;;;25.50;16.05;;;8.50;99.90;;;;;;5048523;28;20046;-83
2022/05/25 02:34:53;;;;;;;19.70;15.15;;;8.50;99.90;;;;;;5029788;28;20049;-83
2022/05/25 02:37:23;;;;;;;22.48;15.38;;;8.40;99.90;;;;;;5045973;28;20077;-83
2022/05/25 02:39:56;;;;;;;22.92;15.13;;;8.50;99.90;;;;;;5034751;28;20505;-83
2022/05/25 02:42:23;;;;;;;22.58;16.17;;;8.40;99.90;;;;;;5022364;28;20262;-84
2022/05/25 02:44:53;;;;;;;21.77;16.75;;;8.40;99.90;;;;;;5013962;28;20096;-83
2022/05/25 02:47:19;;;;;;;21.83;15.60;;;8.40;99.90;;;;;;5030382;28;20562;-82
2022/05/25 02:49:45;;;;;;;21.10;15.18;;;8.30;99.90;;;;;;5029070;28;20045;-83
2022/05/25 02:52:11;;;;;;;21.30;16.13;;;8.30;99.90;;;;;;5028189;28;20383;-85
2022/05/25 02:54:37;;;;;;;25.25;17.45;;;8.30;99.90;;;;;;5006929;28;20487;-83
2022/05/25 02:57:04;;;;;;;21.73;16.55;;;8.30;99.90;;;;;;5013333;28;20094;-83
2022/05/25 02:59:30;;;;;;;26.17;16.35;;;8.20;99.90;;;;;;5017350;28;20761;-83
2022/05/25 03:01:56;;;;;;;27.98;17.23;;;8.30;99.90;;;;;;4997294;28;20071;-82
2022/05/25 03:04:21;;;;;;;25.40;17.38;;;8.30;99.90;;;;;;5045370;28;20068;-83
2022/05/25 03:06:47;;;;;;;30.50;17.75;;;8.30;99.90;;;;;;5045807;28;20057;-82
2022/05/25 03:09:19;;;;;;;27.20;18.50;;;8.30;99.90;;;;;;5031792;28;20042;-83
2022/05/25 03:11:45;;;;;;;28.08;18.77;;;8.40;99.90;;;;;;5030547;28;20045;-82
2022/05/25 03:14:10;;;;;;;26.52;18.17;;;8.40;99.90;;;;;;5011873;28;20046;-83
2022/05/25 03:16:36;;;;;;;29.60;19.63;;;8.40;99.90;;;;;;5042669;28;20053;-83
2022/05/25 03:19:02;;;;;;;29.50;19.48;;;8.40;99.90;;;;;;5030061;28;20040;-83
2022/05/25 03:21:27;;;;;;;31.70;19.52;;;8.40;99.90;;;;;;5028079;28;20053;-82
2022/05/25 03:23:53;;;;;;;33.30;20.30;;;8.40;99.90;;;;;;5043310;28;20398;-82
2022/05/25 03:26:19;;;;;;;32.03;19.23;;;8.40;99.90;;;;;;5040911;28;20045;-82
2022/05/25 03:28:45;;;;;;;29.98;18.48;;;8.40;99.90;;;;;;5024955;28;20569;-83
2022/05/25 03:31:11;;;;;;;31.15;18.13;;;8.50;99.90;;;;;;4996243;28;20115;-82
2022/05/25 03:33:37;;;;;;;27.17;17.83;;;8.40;99.90;;;;;;5012779;28;20553;-83
2022/05/25 03:36:03;;;;;;;30.92;18.77;;;8.30;99.90;;;;;;5042989;28;20115;-83
2022/05/25 03:38:30;;;;;;;27.00;17.80;;;8.40;99.90;;;;;;5011399;28;20053;-83
2022/05/25 03:40:58;;;;;;;24.65;16.75;;;8.30;99.90;;;;;;5028714;28;20064;-83
2022/05/25 03:43:29;;;;;;;29.30;17.80;;;8.30;99.90;;;;;;4997202;28;20050;-82
2022/05/25 03:45:55;;;;;;;27.58;17.45;;;8.40;99.90;;;;;;5028010;28;20565;-83
2022/05/25 03:48:21;;;;;;;28.80;19.30;;;8.30;99.90;;;;;;5007105;28;20095;-82
2022/05/25 03:50:46;;;;;;;26.42;17.77;;;8.30;99.90;;;;;;5010015;28;20049;-84
2022/05/25 03:53:14;;;;;;;27.92;18.25;;;8.30;99.90;;;;;;5029760;28;20046;-83
2022/05/25 03:55:41;;;;;;;28.25;18.20;;;8.30;99.90;;;;;;4999315;28;20041;-82
2022/05/25 03:58:07;;;;;;;26.05;17.67;;;8.30;99.90;;;;;;5023659;28;20045;-83
2022/05/25 04:00:34;;;;;;;26.67;17.50;;;8.30;99.90;;;;;;5018667;28;20434;-83
2022/05/25 04:03:02;;;;;;;28.60;18.45;;;8.30;99.90;;;;;;5028146;28;20038;-82
2022/05/25 04:05:29;;;;;;;27.75;19.02;;;8.40;99.90;;;;;;5028541;28;20100;-83
2022/05/25 04:07:56;;;;;;;24.80;17.67;;;8.40;99.90;;;;;;5030280;28;20057;-83
2022/05/25 04:10:22;;;;;;;25.08;17.30;;;8.40;99.90;;;;;;5030567;28;20042;-84
2022/05/25 04:12:49;;;;;;;27.58;19.17;;;8.50;99.90;;;;;;5045543;28;20038;-84
2022/05/25 04:15:25;;;;;;;29.52;18.55;;;8.40;99.90;;;;;;5026219;28;20124;-83
2022/05/25 04:17:53;;;;;;;27.42;19.08;;;8.50;99.90;;;;;;5012298;28;20045;-84
2022/05/25 04:20:19;;;;;;;28.58;19.13;;;8.50;99.90;;;;;;5031863;28;21094;-83
2022/05/25 04:22:45;;;;;;;29.52;19.98;;;8.50;99.90;;;;;;5027699;28;20124;-83
2022/05/25 04:25:14;;;;;;;29.05;20.33;;;8.50;99.90;;;;;;5014871;28;20629;-83
2022/05/25 04:27:43;;;;;;;25.58;18.65;;;8.60;99.90;;;;;;5001478;28;20155;-83
2022/05/25 04:30:13;;;;;;;24.85;18.10;;;8.70;99.90;;;;;;5014137;28;20493;-83
2022/05/25 04:32:39;;;;;;;28.55;18.80;;;8.70;99.90;;;;;;5029774;28;20052;-83
2022/05/25 04:35:05;;;;;;;24.90;17.17;;;8.70;99.90;;;;;;5030603;28;20049;-83
2022/05/25 04:37:49;;;;;;;26.73;18.00;;;8.80;99.90;;;;;;5048501;28;20057;-82
2022/05/25 04:40:35;;;;;;;28.38;17.00;;;8.80;99.90;;;;;;5030615;28;20173;-83
2022/05/25 04:43:02;;;;;;;;;;;8.80;99.90;;;;;;5014185;28;20053;-83
2022/05/25 04:45:29;;;;;;;24.08;17.02;;;8.80;99.90;;;;;;5030041;28;19979;-82
2022/05/25 04:47:58;;;;;;;26.98;17.42;;;8.90;99.90;;;;;;5031128;28;20525;-82
2022/05/25 04:50:27;;;;;;;25.35;17.25;;;8.90;99.90;;;;;;5049197;28;20084;-83
2022/05/25 04:52:56;;;;;;;25.70;17.83;;;9.00;99.90;;;;;;5027653;28;20403;-84
2022/05/25 04:58:26;;;;;;;28.90;17.58;;;9.10;99.90;;;;;;5016087;28;20136;-83
2022/05/25 05:00:53;;;;;;;21.13;16.52;;;9.20;99.90;;;;;;5000920;28;20115;-83
2022/05/25 05:03:20;;;;;;;23.48;16.40;;;9.20;99.90;;;;;;4993351;28;20052;-84
2022/05/25 05:05:46;;;;;;;21.85;15.98;;;9.20;99.90;;;;;;5025340;28;20459;-83
2022/05/25 05:08:15;;;;;;;24.23;16.25;;;9.30;99.90;;;;;;5025320;28;20064;-82
2022/05/25 05:10:41;;;;;;;25.35;16.67;;;9.30;99.90;;;;;;5026927;28;20127;-84
2022/05/25 05:13:07;;;;;;;25.63;16.75;;;9.40;99.90;;;;;;5021843;28;20128;-84
2022/05/25 05:15:39;;;;;;;22.27;15.63;;;9.40;99.90;;;;;;5006638;28;20091;-83
2022/05/25 05:18:07;;;;;;;23.52;15.98;;;9.50;99.90;;;;;;5034677;28;20067;-84
2022/05/25 05:20:33;;;;;;;27.08;16.77;;;9.60;99.90;;;;;;5030401;28;20124;-84
2022/05/25 05:22:59;;;;;;;27.00;16.77;;;9.50;99.90;;;;;;5030745;28;20557;-85
2022/05/25 05:25:26;;;;;;;24.33;17.05;;;9.70;99.90;;;;;;5013031;28;20052;-85
2022/05/25 05:27:52;;;;;;;23.25;15.82;;;9.70;99.90;;;;;;5028454;28;20191;-83
2022/05/25 05:30:21;;;;;;;22.05;15.48;;;9.80;99.90;;;;;;5011996;28;20276;-82
2022/05/25 05:32:47;;;;;;;22.10;15.02;;;9.80;99.90;;;;;;5011362;28;20049;-82
2022/05/25 05:35:13;;;;;;;24.27;14.98;;;9.90;99.90;;;;;;5016917;28;20049;-84
2022/05/25 05:37:45;;;;;;;22.35;15.38;;;9.90;99.90;;;;;;4995272;28;20112;-85
2022/05/25 05:40:14;;;;;;;23.05;15.48;;;10.00;99.90;;;;;;5030685;28;20057;-83
2022/05/25 05:42:41;;;;;;;21.45;14.93;;;10.10;99.90;;;;;;5005946;28;20128;-84
2022/05/25 05:45:15;;;;;;;23.60;15.20;;;10.20;99.90;;;;;;5016616;28;20064;-85
2022/05/25 05:47:52;;;;;;;24.50;15.60;;;10.40;99.90;;;;;;5040420;28;20073;-83
2022/05/25 05:50:20;;;;;;;23.55;15.60;;;10.50;99.90;;;;;;4994178;28;20045;-82
2022/05/25 05:52:48;;;;;;;20.63;14.85;;;10.60;99.90;;;;;;5031453;28;20077;-82
2022/05/25 05:55:15;;;;;;;22.25;14.32;;;10.70;99.90;;;;;;5013484;28;20049;-83
2022/05/25 05:57:40;;;;;;;20.20;14.77;;;10.80;99.90;;;;;;5017483;28;20695;-83
2022/05/25 06:00:08;;;;;;;17.48;13.73;;;10.90;99.90;;;;;;5006016;28;20044;-82
2022/05/25 06:02:33;;;;;;;15.98;12.80;;;11.00;99.90;;;;;;5020460;28;20124;-82
2022/05/25 06:04:59;;;;;;;17.65;13.20;;;11.20;99.90;;;;;;5014947;28;20179;-82
2022/05/25 06:07:25;;;;;;;17.20;13.73;;;11.30;99.90;;;;;;5020981;28;20134;-82
2022/05/25 06:09:50;;;;;;;18.13;13.30;;;11.50;99.90;;;;;;5013149;28;20493;-82
2022/05/25 06:12:16;;;;;;;16.35;11.93;;;11.60;99.90;;;;;;5042501;28;20053;-84
2022/05/25 06:14:42;;;;;;;16.20;11.95;;;11.80;99.90;;;;;;5028106;28;20132;-84
2022/05/25 06:19:53;;;;;;;16.15;11.75;;;12.30;99.90;;;;;;5004959;28;20071;-83
2022/05/25 06:22:18;;;;;;;13.95;10.98;;;12.50;99.90;;;;;;5053082;28;20042;-82
2022/05/25 06:24:50;;;;;;;14.15;10.85;;;12.70;99.90;;;;;;4974475;28;20069;-82
2022/05/25 06:27:18;;;;;;;13.20;10.07;;;12.90;99.90;;;;;;5013710;28;20049;-81
2022/05/25 06:29:48;;;;;;;11.38;9.00;;;13.10;99.90;;;;;;5000694;28;20049;-82
2022/05/25 06:32:17;;;;;;;14.02;9.50;;;13.30;99.90;;;;;;5009332;28;20041;-82
2022/05/25 06:34:47;;;;;;;11.10;8.90;;;13.50;99.90;;;;;;5020869;28;20061;-82
2022/05/25 06:37:18;;;;;;;13.63;8.82;;;13.60;99.90;;;;;;5014231;28;20077;-82
2022/05/25 06:39:44;;;;;;;13.20;8.80;;;13.80;99.90;;;;;;5014912;28;20042;-82
2022/05/25 06:42:10;;;;;;;13.40;8.88;;;14.00;99.90;;;;;;5031956;28;20045;-82
2022/05/25 06:44:36;;;;;;;12.52;7.57;;;14.10;99.90;;;;;;5049588;28;20053;-82
2022/05/25 06:47:03;;;;;;;9.57;7.88;;;14.20;99.90;;;;;;5049115;28;20048;-83
2022/05/25 06:49:30;;;;;;;12.35;7.93;;;14.30;99.90;;;;;;5013699;28;20068;-82
2022/05/25 06:51:56;;;;;;;10.02;7.80;;;14.50;99.90;;;;;;5004103;28;20080;-84
2022/05/25 06:54:21;;;;;;;11.32;7.63;;;14.60;99.90;;;;;;5046281;28;20511;-83
2022/05/25 06:56:47;;;;;;;9.18;6.35;;;14.90;99.90;;;;;;5008998;28;20072;-83
2022/05/25 06:59:13;;;;;;;9.43;7.30;;;15.10;99.90;;;;;;5029476;28;20057;-82
2022/05/25 07:01:40;;;;;;;14.13;7.30;;;15.30;99.90;;;;;;5000509;28;20498;-82
2022/05/25 07:04:07;;;;;;;9.68;6.57;;;15.60;99.90;;;;;;5014287;28;20053;-82
2022/05/25 07:06:36;;;;;;;9.30;6.60;;;15.80;99.90;;;;;;5032930;28;20391;-82
2022/05/25 07:09:03;;;;;;;11.73;6.38;;;16.10;99.90;;;;;;5031767;28;20132;-81
2022/05/25 07:11:29;;;;;;;10.65;6.15;;;16.30;99.90;;;;;;5009401;28;20049;-81
2022/05/25 07:13:55;;;;;;;9.80;7.30;;;16.60;99.90;;;;;;4988226;28;20049;-82
2022/05/25 07:16:22;;;;;;;9.23;6.22;;;16.90;99.90;;;;;;5042306;28;20128;-82
2022/05/25 07:18:48;;;;;;;11.18;6.35;;;17.10;99.90;;;;;;5028599;28;20088;-83
2022/05/25 07:21:20;;;;;;;9.45;6.28;;;17.40;99.90;;;;;;5014568;28;20106;-85
2022/05/25 07:23:48;;;;;;;9.57;6.78;;;17.60;99.90;;;;;;5012763;28;20042;-82
2022/05/25 07:26:14;;;;;;;7.35;6.18;;;17.80;99.90;;;;;;5043524;28;20069;-84
2022/05/25 07:28:40;;;;;;;7.35;6.32;;;17.80;99.90;;;;;;5037129;28;20041;-82
2022/05/25 07:31:10;;;;;;;8.95;6.50;;;17.90;99.90;;;;;;5031130;28;20052;-82
2022/05/25 07:33:40;;;;;;;10.27;5.90;;;18.20;99.90;;;;;;5019428;28;20240;-82
2022/05/25 07:36:08;;;;;;;7.78;5.93;;;18.30;99.90;;;;;;5031031;28;20045;-86
2022/05/25 07:38:34;;;;;;;8.82;5.53;;;18.40;99.90;;;;;;4997131;28;20060;-84
2022/05/25 07:41:01;;;;;;;9.65;5.80;;;18.40;99.90;;;;;;5021347;28;20665;-84
2022/05/25 07:43:30;;;;;;;4.85;4.20;;;18.60;99.90;;;;;;5027899;28;20048;-84
2022/05/25 07:45:56;;;;;;;6.55;3.85;;;18.70;99.90;;;;;;5044122;28;20055;-82
2022/05/25 07:48:21;;;;;;;7.47;4.43;;;18.40;99.90;;;;;;5043242;28;20051;-83
2022/05/25 07:50:47;;;;;;;7.43;4.35;;;18.40;99.90;;;;;;4996415;28;20061;-83
2022/05/25 07:56:01;;;;;;;11.18;4.53;;;18.80;99.90;;;;;;5009166;28;20459;-82
2022/05/25 07:58:26;;;;;;;5.13;4.32;;;19.30;99.90;;;;;;4998200;28;20396;-83
2022/05/25 08:00:58;;;;;;;6.88;4.95;;;19.70;98.90;;;;;;5016336;28;20051;-85
2022/05/25 08:06:10;;;;;;;6.82;3.78;;;20.40;93.40;;;;;;5031330;28;20052;-84
2022/05/25 08:08:36;;;;;;;5.38;4.10;;;20.20;90.60;;;;;;4999634;28;20075;-84
2022/05/25 08:11:09;;;;;;;6.70;3.90;;;19.90;89.20;;;;;;4982774;28;20049;-83
2022/05/25 08:13:38;;;;;;;3.83;2.83;;;20.20;90.40;;;;;;5045962;28;20182;-83
2022/05/25 08:16:05;;;;;;;3.17;2.85;;;20.20;80.50;;;;;;5017799;28;20049;-84
2022/05/25 08:18:33;;;;;;;5.95;3.60;;;20.40;81.90;;;;;;5044961;28;20052;-84
2022/05/25 08:20:59;;;;;;;5.95;4.00;;;20.60;80.80;;;;;;5046602;28;20050;-84
2022/05/25 08:23:25;;;;;;;5.03;3.75;;;20.70;76.40;;;;;;4998710;28;20060;-83
2022/05/25 08:25:50;;;;;;;6.13;3.97;;;20.70;75.40;;;;;;5020704;28;20081;-85
2022/05/25 08:28:16;;;;;;;8.40;4.68;;;21.00;73.50;;;;;;5027542;28;20051;-83
2022/05/25 08:30:43;;;;;;;6.63;4.03;;;20.80;73.10;;;;;;5031933;28;20126;-84
2022/05/25 08:33:09;;;;;;;6.43;3.67;;;21.10;73.90;;;;;;5031982;28;20494;-83
2022/05/25 08:35:35;;;;;;;5.28;2.90;;;21.40;74.40;;;;;;5014153;28;20046;-83
2022/05/25 08:38:02;;;;;;;4.68;3.40;;;21.90;72.20;;;;;;5024382;28;20041;-84
2022/05/25 08:40:30;;;;;;;3.67;2.50;;;22.30;67.80;;;;;;5013785;28;20054;-84
2022/05/25 08:43:12;;;;;;;4.75;2.83;;;22.00;61.70;;;;;;5014144;28;20049;-83
2022/05/25 08:45:40;;;;;;;5.90;3.22;;;21.60;60.40;;;;;;5032354;28;20049;-84
2022/05/25 08:48:09;;;;;;;4.03;3.28;;;21.20;62.60;;;;;;5041073;28;20102;-83
2022/05/25 08:50:36;;;;;;;4.18;2.72;;;21.40;65.20;;;;;;5010635;28;20092;-83
2022/05/25 08:53:03;;;;;;;4.95;3.65;;;21.80;63.80;;;;;;5030383;28;20108;-83
2022/05/25 08:55:51;;;;;;;4.80;2.90;;;21.90;62.70;;;;;;4979170;28;20108;-85
2022/05/25 08:58:19;;;;;;;3.80;3.15;;;21.90;59.50;;;;;;5030548;28;20132;-83
2022/05/25 09:00:46;;;;;;;3.78;2.63;;;22.00;62.20;;;;;;5021173;28;20044;-83
2022/05/25 09:03:17;;;;;;;5.85;2.97;;;22.50;60.90;;;;;;5018360;28;20517;-83
2022/05/25 09:05:46;;;;;;;4.90;2.75;;;22.20;58.10;;;;;;5036329;28;20103;-84
2022/05/25 09:08:46;;;;;;;3.95;2.05;;;21.70;60.50;;;;;;5031218;28;20056;-83
2022/05/25 09:11:17;;;;;;;4.13;2.03;;;21.00;56.80;;;;;;4995228;28;20077;-83
2022/05/25 09:13:59;;;;;;;2.60;1.83;;;20.40;60.60;;;;;;5011965;28;20081;-83
2022/05/25 09:16:27;;;;;;;4.47;2.20;;;20.10;61.80;;;;;;5031227;28;20057;-85
2022/05/25 09:19:01;;;;;;;3.40;2.13;;;20.10;62.10;;;;;;5014532;28;20487;-82
2022/05/25 09:21:33;;;;;;;4.10;2.03;;;20.20;61.90;;;;;;5014451;28;20049;-83
2022/05/25 09:24:03;;;;;;;6.63;2.22;;;20.30;61.80;;;;;;5047255;28;20102;-83
2022/05/25 09:26:31;;;;;;;3.42;1.98;;;20.30;62.00;;;;;;5050759;28;20398;-84
2022/05/25 09:29:07;;;;;;;6.70;2.33;;;20.30;63.20;;;;;;5042932;28;20438;-82
2022/05/25 09:31:49;;;;;;;4.65;2.60;;;20.20;61.20;;;;;;5047474;28;20093;-83
2022/05/25 09:34:33;;;;;;;5.68;2.25;;;20.20;61.80;;;;;;5026661;28;20061;-83
2022/05/25 09:37:10;;;;;;;8.18;2.15;;;20.00;60.70;;;;;;5049740;28;20053;-83
2022/05/25 09:39:43;;;;;;;3.67;2.33;;;20.20;62.10;;;;;;5014116;28;20057;-83
2022/05/25 09:42:17;;;;;;;3.20;1.73;;;20.40;61.90;;;;;;5014532;28;20040;-83
2022/05/25 09:44:48;;;;;;;4.15;1.75;;;20.80;61.30;;;;;;5014035;28;20049;-83
2022/05/25 09:47:23;;;;;;;3.97;2.00;;;21.50;60.20;;;;;;5022385;28;20086;-83
2022/05/25 09:49:52;;;;;;;2.75;1.77;;;21.60;56.80;;;;;;5014073;28;20085;-83
2022/05/25 09:52:27;;;;;;;3.22;2.00;;;21.50;56.20;;;;;;5044085;28;20120;-83
2022/05/25 09:55:01;;;;;;;4.40;3.90;;;21.60;56.10;;;;;;5027093;28;20057;-84
2022/05/25 09:57:32;;;;;;;3.05;2.30;;;22.10;55.90;;;;;;5042715;28;20061;-83
2022/05/25 10:00:08;;;;;;;4.20;2.72;;;22.50;56.10;;;;;;5031078;28;20506;-84
2022/05/25 10:02:47;;;;;;;5.45;2.35;;;22.70;54.50;;;;;;5030936;28;20128;-84
2022/05/25 10:05:30;;;;;;;4.25;2.60;;;22.00;53.40;;;;;;5045754;28;20037;-84
2022/05/25 10:08:00;;;;;;;4.35;2.20;;;22.10;53.90;;;;;;5026454;28;20069;-84
2022/05/25 10:10:32;;;;;;;3.03;2.00;;;21.60;56.80;;;;;;5044122;28;20092;-83
2022/05/25 10:13:22;;;;;;;2.63;1.80;;;22.00;56.00;;;;;;5007178;28;20509;-85
2022/05/25 10:15:51;;;;;;;4.90;2.05;;;22.20;55.60;;;;;;5010750;28;20053;-84
2022/05/25 10:18:42;;;;;;;3.97;2.10;;;21.80;54.80;;;;;;5014547;28;20041;-84
2022/05/25 10:21:21;;;;;;;4.07;1.95;;;21.10;53.70;;;;;;5013488;28;20053;-85
2022/05/25 10:23:47;;;;;;;4.30;2.85;;;20.50;57.70;;;;;;5029479;28;20045;-84
2022/05/25 10:26:26;;;;;;;6.47;3.50;;;20.40;60.60;;;;;;5033355;28;20055;-84
2022/05/25 10:28:56;;;;;;;4.13;3.05;;;20.40;62.40;;;;;;5032866;28;20045;-84
2022/05/25 10:37:07;;;;;;;5.68;2.85;;;21.90;60.50;;;;;;5019657;28;20140;-85
2022/05/25 10:39:44;;;;;;;5.05;2.20;;;21.70;58.70;;;;;;5023902;28;20094;-86
2022/05/25 10:42:09;;;;;;;5.78;2.65;;;21.60;58.70;;;;;;5001763;28;20543;-84
2022/05/25 10:45:01;;;;;;;3.08;2.20;;;21.20;56.80;;;;;;5025632;28;20160;-84
2022/05/25 10:50:35;;;;;;;4.45;2.17;;;22.00;55.10;;;;;;5023410;28;20395;-84
2022/05/25 10:53:11;;;;;;;5.82;2.20;;;21.90;57.50;;;;;;5032743;28;20136;-83
2022/05/25 10:56:04;;;;;;;3.00;2.00;;;21.90;53.80;;;;;;5008562;28;20404;-82
2022/05/25 10:58:53;;;;;;;4.85;2.60;;;21.60;53.30;;;;;;5005656;28;20053;-83
2022/05/25 11:01:24;;;;;;;4.18;2.15;;;22.50;51.40;;;;;;5007706;28;20513;-84
2022/05/25 11:04:18;;;;;;;10.18;2.50;;;23.30;50.20;;;;;;5002291;28;20096;-83
2022/05/25 11:07:10;;;;;;;7.20;2.47;;;23.70;47.20;;;;;;5010117;28;20057;-83
2022/05/25 11:09:38;;;;;;;3.20;1.98;;;23.20;47.60;;;;;;5008363;28;20050;-87
2022/05/25 11:12:42;;;;;;;7.68;2.17;;;22.60;50.10;;;;;;5020885;28;20430;-83
2022/05/25 11:15:30;;;;;;;3.15;2.13;;;21.90;48.10;;;;;;5041291;28;20088;-83
2022/05/25 11:18:31;;;;;;;4.82;1.77;;;22.40;49.20;;;;;;5001166;28;20052;-84
2022/05/25 11:21:18;;;;;;;3.28;1.10;;;22.50;44.80;;;;;;5021994;28;20817;-84
2022/05/25 11:23:50;;;;;;;3.60;1.50;;;22.40;42.90;;;;;;5006879;28;20104;-83
2022/05/25 11:26:28;;;;;;;2.75;1.80;;;22.10;45.20;;;;;;5007915;28;20064;-83
2022/05/25 11:29:19;;;;;;;3.17;2.20;;;22.30;46.90;;;;;;5027491;28;20458;-85
2022/05/25 11:32:09;;;;;;;5.68;2.20;;;23.40;46.30;;;;;;5031467;28;20133;-83
2022/05/25 11:35:17;;;;;;;7.20;1.80;;;24.90;42.50;;;;;;5028283;28;20050;-84
2022/05/25 11:37:42;;;;;;;7.70;2.63;;;24.60;38.10;;;;;;5008425;28;20049;-83
2022/05/25 11:40:17;;;;;;;7.90;3.15;;;23.60;42.50;;;;;;5011546;28;20053;-83
2022/05/25 11:43:24;;;;;;;4.43;2.60;;;22.90;43.60;;;;;;5013600;28;20096;-86
2022/05/25 11:46:31;;;;;;;10.68;3.17;;;21.90;46.50;;;;;;5007769;28;20459;-83
2022/05/25 11:49:00;;;;;;;6.80;3.65;;;20.90;48.50;;;;;;5036851;28;20045;-84
2022/05/25 11:51:33;;;;;;;6.40;3.70;;;19.90;51.20;;;;;;5023888;28;20568;-84
2022/05/25 11:54:17;;;;;;;7.28;4.30;;;19.50;54.00;;;;;;5011947;28;20041;-84
2022/05/25 11:57:21;;;;;;;10.68;4.13;;;19.10;55.70;;;;;;4999699;28;20054;-83
2022/05/25 11:59:56;;;;;;;7.10;4.45;;;18.60;61.50;;;;;;5010373;28;20052;-82
2022/05/25 12:02:46;;;;;;;8.65;4.65;;;17.80;67.70;;;;;;5014802;28;20041;-84
2022/05/25 12:05:36;;;;;;;7.05;5.55;;;16.80;99.90;;;;;;5022968;28;20046;-84
2022/05/25 12:08:07;;;;;;;11.02;7.20;;;15.10;99.90;;;;;;5022524;28;20679;-83
2022/05/25 12:10:37;;;;;;;7.88;7.10;;;13.90;99.90;;;;;;5015219;28;20124;-84
2022/05/25 12:13:35;;;;;;;10.13;7.65;;;13.30;99.90;;;;;;4982173;28;20483;-83
2022/05/25 12:16:21;;;;;;;9.68;7.85;;;13.30;99.90;;;;;;5025563;28;20038;-83
2022/05/25 12:19:10;;;;;;;10.75;7.75;;;13.70;99.90;;;;;;5015235;28;20083;-83
2022/05/25 12:21:45;;;;;;;10.13;7.70;;;14.20;99.90;;;;;;5027046;28;20054;-83
2022/05/25 12:24:19;;;;;;;9.00;8.10;;;14.90;99.90;;;;;;4996633;28;20056;-83
2022/05/25 12:26:46;;;;;;;9.05;7.93;;;15.50;99.90;;;;;;5032161;28;20053;-83
2022/05/25 12:29:21;;;;;;;10.30;9.23;;;15.90;99.90;;;;;;5026080;28;20092;-83
2022/05/25 12:31:51;;;;;;;13.90;8.15;;;16.40;99.90;;;;;;5048539;28;20045;-83
2022/05/25 12:34:31;;;;;;;8.20;7.40;;;17.10;99.90;;;;;;5045570;28;20045;-83
2022/05/25 12:36:58;;;;;;;8.40;6.72;;;17.40;99.90;;;;;;5035942;28;20119;-82
2022/05/25 12:39:42;;;;;;;9.38;7.13;;;17.60;99.90;;;;;;5015847;28;20088;-83
2022/05/25 12:42:23;;;;;;;8.13;6.57;;;17.60;99.90;;;;;;5015604;28;20075;-83
2022/05/25 12:51:05;;;;;;;9.05;6.40;;;16.40;99.90;;;;;;5031324;28;20049;-83
2022/05/25 12:53:40;;;;;;;6.50;5.10;;;16.70;99.90;;;;;;5031629;28;20502;-83
2022/05/25 12:56:17;;;;;;;7.72;4.95;;;17.40;99.90;;;;;;5014839;28;20275;-83
2022/05/25 12:58:43;;;;;;;6.82;3.78;;;18.00;99.90;;;;;;5028427;28;20101;-83
2022/05/25 13:01:32;;;;;;;8.35;3.20;;;18.40;99.90;;;;;;4995307;28;20487;-83
2022/05/25 13:03:57;;;;;;;5.47;3.13;;;18.30;99.90;;;;;;5031923;28;20096;-84
2022/05/25 13:06:29;;;;;;;3.78;2.38;;;18.30;99.90;;;;;;5011305;28;20054;-83
2022/05/25 13:08:58;;;;;;;4.85;1.50;;;18.10;99.90;;;;;;5015229;28;20490;-84
2022/05/25 13:11:42;;;;;;;3.38;1.10;;;18.10;99.90;;;;;;5014876;28;20053;-84
2022/05/25 13:14:16;;;;;;;5.53;1.13;;;18.30;92.10;;;;;;5047723;28;20128;-83
2022/05/25 13:16:48;;;;;;;3.97;1.10;;;18.10;99.90;;;;;;5047184;28;20156;-83
2022/05/25 13:19:29;;;;;;;4.15;1.00;;;18.20;99.90;;;;;;5032730;28;20396;-84
2022/05/25 13:22:04;;;;;;;4.00;0.82;;;19.40;92.50;;;;;;5030904;28;20064;-83
2022/05/25 13:24:35;;;;;;;3.80;1.10;;;19.80;83.60;;;;;;5015014;28;20045;-83
2022/05/25 13:27:16;;;;;;;6.78;1.08;;;19.70;73.90;;;;;;5014360;28;20081;-83
2022/05/25 13:30:02;;;;;;;5.35;1.20;;;19.80;71.60;;;;;;5047892;28;20053;-84
2022/05/25 13:32:33;;;;;;;2.92;1.00;;;19.50;66.30;;;;;;5031026;28;20440;-83
2022/05/25 13:35:28;;;;;;;3.13;0.77;;;19.10;72.20;;;;;;4994825;28;20496;-84